Time;durP1;ratioP1;P1;durP2;ratioP2;P2;SDS_P1;SDS_P2;PMS_P1;PMS_P2;Temp;Humidity;BMP_temperature;BMP_pressure;BME280_temperature;BME280_humidity;BME280_pressure;Samples;Min_cycle;Max_cycle;Signal;HPM_P1;HPM_P2
2021/12/25 00:02:20;;;;;;;7.70;1.40;;;0.30;99.90;;;;;;4997741;28;20038;-79
2021/12/25 00:04:46;;;;;;;8.33;1.40;;;0.20;99.90;;;;;;5015210;28;20050;-79
2021/12/25 00:07:11;;;;;;;4.87;1.70;;;0.20;99.90;;;;;;5015115;28;20049;-78
2021/12/25 00:09:37;;;;;;;5.60;1.27;;;0.20;99.90;;;;;;4997746;28;20504;-78
2021/12/25 00:12:03;;;;;;;6.83;1.70;;;0.20;99.90;;;;;;4997243;28;20041;-79
2021/12/25 00:14:29;;;;;;;11.73;1.37;;;0.10;99.90;;;;;;5015195;28;20505;-79
2021/12/25 00:16:57;;;;;;;6.73;1.40;;;0.10;99.90;;;;;;5014895;28;20049;-79
2021/12/25 00:19:23;;;;;;;5.80;1.73;;;0.20;99.90;;;;;;5015216;28;20046;-79
2021/12/25 00:21:48;;;;;;;6.87;2.20;;;0.10;99.90;;;;;;5014801;28;20467;-79
2021/12/25 00:24:14;;;;;;;7.40;1.30;;;0.10;99.90;;;;;;5014559;28;20121;-78
2021/12/25 00:26:54;;;;;;;3.83;1.30;;;0.00;99.90;;;;;;5014934;28;20105;-78
2021/12/25 00:32:35;;;;;;;14.43;1.95;;;0.00;99.90;;;;;;4999591;28;20081;-78
2021/12/25 00:34:59;;;;;;;8.48;1.85;;;0.00;99.90;;;;;;4996579;28;20050;-78
2021/12/25 00:37:26;;;;;;;10.87;1.90;;;0.00;99.90;;;;;;4997014;28;20100;-78
2021/12/25 00:39:54;;;;;;;9.35;1.67;;;0.00;99.90;;;;;;5014768;28;20188;-78
2021/12/25 00:42:22;;;;;;;5.93;1.27;;;0.00;99.90;;;;;;4996815;28;20072;-78
2021/12/25 00:44:48;;;;;;;4.78;1.20;;;0.10;99.90;;;;;;5013671;28;20128;-78
2021/12/25 00:47:14;;;;;;;10.35;1.55;;;0.10;99.90;;;;;;5014061;28;20136;-79
2021/12/25 00:49:39;;;;;;;4.90;1.40;;;-0.10;99.90;;;;;;5014404;28;20092;-79
2021/12/25 00:52:05;;;;;;;5.90;1.13;;;-0.10;99.90;;;;;;5013930;28;20134;-78
2021/12/25 00:54:31;;;;;;;4.47;1.00;;;-0.20;99.90;;;;;;4996847;28;20065;-79
2021/12/25 00:56:57;;;;;;;6.13;1.40;;;0.00;99.90;;;;;;5014354;28;20064;-78
2021/12/25 00:59:22;;;;;;;6.63;1.50;;;-0.10;99.90;;;;;;5013883;28;20486;-78
2021/12/25 01:01:48;;;;;;;6.93;1.20;;;-0.10;99.90;;;;;;4996668;28;20128;-79
2021/12/25 01:04:14;;;;;;;4.47;1.10;;;-0.20;99.90;;;;;;5013776;28;20045;-78
2021/12/25 01:06:40;;;;;;;4.80;0.93;;;-0.10;99.90;;;;;;5014357;28;20053;-78
2021/12/25 01:09:06;;;;;;;9.43;1.40;;;-0.20;99.90;;;;;;5013694;28;20057;-78
2021/12/25 01:11:34;;;;;;;8.30;1.05;;;-0.20;99.90;;;;;;5013959;28;20045;-78
2021/12/25 01:14:10;;;;;;;5.28;0.82;;;-0.30;99.90;;;;;;4996671;28;20128;-78
2021/12/25 01:22:17;;;;;;;7.25;1.45;;;-0.40;99.90;;;;;;4973434;28;20064;-78
2021/12/25 01:35:19;;;;;;;5.63;0.93;;;-0.60;99.90;;;;;;5013548;28;20085;-78
2021/12/25 01:37:59;;;;;;;6.38;1.02;;;-0.60;99.90;;;;;;5013509;28;20479;-78
2021/12/25 01:48:39;;;;;;;5.03;1.08;;;-0.70;99.90;;;;;;5013286;28;20128;-78
2021/12/25 01:51:05;;;;;;;5.97;1.50;;;-0.70;99.90;;;;;;5013355;28;20575;-78
2021/12/25 01:53:31;;;;;;;6.90;1.52;;;-0.80;99.90;;;;;;5013508;28;20049;-77
2021/12/25 01:56:00;;;;;;;5.87;1.20;;;-0.80;99.20;;;;;;5013252;28;20062;-78
2021/12/25 01:58:26;;;;;;;4.40;1.00;;;-0.90;98.50;;;;;;5012964;28;20064;-77
2021/12/25 02:00:54;;;;;;;6.63;1.00;;;-0.20;99.90;;;;;;5013241;28;20049;-78
2021/12/25 02:03:23;;;;;;;4.20;0.90;;;-0.20;99.90;;;;;;5012880;28;20046;-77
2021/12/25 02:05:49;;;;;;;5.07;1.65;;;-0.40;99.90;;;;;;5013343;28;20046;-78
2021/12/25 02:08:16;;;;;;;4.63;0.90;;;-0.90;99.90;;;;;;4995536;28;20046;-78
2021/12/25 02:10:42;;;;;;;5.35;1.00;;;;;;;;;;5013457;28;20163;-78
2021/12/25 02:13:09;;;;;;;5.00;1.00;;;-0.90;99.90;;;;;;5013111;28;20050;-77
2021/12/25 02:15:36;;;;;;;5.32;1.10;;;-0.50;99.90;;;;;;5013099;28;20046;-78
2021/12/25 02:20:36;;;;;;;7.50;0.98;;;-0.90;99.90;;;;;;5012702;28;20060;-77
2021/12/25 02:23:14;;;;;;;1.70;0.70;;;-0.80;99.90;;;;;;4995678;28;20045;-77
2021/12/25 02:25:41;;;;;;;5.38;0.85;;;-1.00;99.90;;;;;;4995844;28;20046;-77
2021/12/25 02:28:08;;;;;;;2.38;0.73;;;-1.00;99.90;;;;;;5012976;28;20053;-77
2021/12/25 02:30:33;;;;;;;6.30;0.90;;;-1.00;99.90;;;;;;4995212;28;20046;-77
2021/12/25 02:32:59;;;;;;;2.97;0.70;;;-1.00;99.90;;;;;;5012955;28;20496;-77
2021/12/25 02:35:26;;;;;;;6.43;1.33;;;-1.10;99.90;;;;;;5012635;28;20397;-77
2021/12/25 02:37:53;;;;;;;3.83;0.88;;;-1.00;99.90;;;;;;4995009;28;20528;-77
2021/12/25 02:40:19;;;;;;;3.88;0.70;;;-1.20;99.90;;;;;;5012671;28;20132;-77
2021/12/25 02:42:45;;;;;;;3.47;0.95;;;-0.90;99.90;;;;;;5012801;28;20041;-77
2021/12/25 02:45:16;;;;;;;4.93;1.15;;;-1.30;99.90;;;;;;4995586;28;20053;-77
2021/12/25 02:47:43;;;;;;;2.92;0.80;;;-1.30;99.90;;;;;;5013032;28;20131;-77
2021/12/25 02:50:10;;;;;;;4.15;0.80;;;-0.90;99.90;;;;;;5012810;28;20060;-77
2021/12/25 02:52:35;;;;;;;5.45;1.10;;;-1.40;99.90;;;;;;5012397;28;20082;-77
2021/12/25 02:55:01;;;;;;;4.63;1.00;;;-1.00;99.90;;;;;;5012807;28;20087;-77
2021/12/25 02:57:27;;;;;;;6.93;1.13;;;-1.30;99.90;;;;;;5012421;28;20081;-77
2021/12/25 02:59:53;;;;;;;6.50;0.90;;;-1.50;99.90;;;;;;5012969;28;20104;-77
2021/12/25 03:02:19;;;;;;;5.80;1.13;;;-1.50;99.90;;;;;;5012213;28;20495;-77
2021/12/25 03:04:48;;;;;;;5.33;1.07;;;-1.50;99.90;;;;;;5012635;28;20045;-78
2021/12/25 03:07:14;;;;;;;5.45;1.10;;;-1.50;99.90;;;;;;5014537;28;20045;-77
2021/12/25 03:09:42;;;;;;;3.63;0.93;;;-1.60;99.90;;;;;;5016224;28;20053;-77
2021/12/25 03:12:12;;;;;;;3.35;0.90;;;-1.70;99.90;;;;;;5016156;28;20046;-77
2021/12/25 03:15:01;;;;;;;3.63;1.20;;;-1.60;99.90;;;;;;5016054;28;20054;-77
2021/12/25 03:17:26;;;;;;;3.25;1.50;;;-1.20;99.90;;;;;;5015420;28;20050;-77
2021/12/25 03:19:54;;;;;;;3.80;1.20;;;-1.60;99.90;;;;;;5016038;28;20050;-78
2021/12/25 03:22:20;;;;;;;2.80;0.98;;;;;;;;;;5015713;28;20301;-76
2021/12/25 03:24:46;;;;;;;2.67;0.75;;;;;;;;;;4998384;28;20042;-77
2021/12/25 03:27:13;;;;;;;2.95;0.75;;;;;;;;;;5015955;28;20045;-78
2021/12/25 03:29:41;;;;;;;2.45;0.60;;;;;;;;;;5015649;28;20052;-77
2021/12/25 03:32:07;;;;;;;5.45;1.70;;;;;;;;;;5015509;28;20574;-77
2021/12/25 03:34:33;;;;;;;2.47;0.70;;;;;;;;;;5015486;28;20046;-77
2021/12/25 03:37:00;;;;;;;4.75;0.60;;;;;;;;;;4998233;28;20075;-77
2021/12/25 03:39:26;;;;;;;6.28;0.90;;;;;;;;;;5015468;28;20136;-77
2021/12/25 03:41:52;;;;;;;1.88;0.60;;;;;;;;;;5015577;28;20052;-77
2021/12/25 03:44:18;;;;;;;3.97;0.90;;;-1.70;94.60;;;;;;4981618;28;20496;-78
2021/12/25 03:46:44;;;;;;;3.80;0.80;;;-1.80;94.90;;;;;;5015608;28;20050;-77
2021/12/25 03:49:28;;;;;;;2.67;0.70;;;-1.90;94.90;;;;;;5015631;28;20054;-77
2021/12/25 04:00:28;;;;;;;3.83;0.82;;;-2.00;95.30;;;;;;4971423;28;20524;-76
2021/12/25 04:02:58;;;;;;;5.30;0.88;;;-2.00;94.40;;;;;;4997968;28;20437;-77
2021/12/25 04:05:28;;;;;;;1.95;0.57;;;-2.00;93.30;;;;;;5014820;28;20046;-76
2021/12/25 04:10:33;;;;;;;;;;;-2.00;93.30;;;;;;5015389;28;20046;-76
2021/12/25 04:13:00;;;;;;;4.53;0.90;;;-2.00;93.60;;;;;;5014980;28;19928;-76
2021/12/25 04:15:26;;;;;;;1.38;0.50;;;;;;;;;;5014586;28;20085;-76
2021/12/25 04:17:52;;;;;;;2.65;1.00;;;;;;;;;;5014392;28;20053;-76
2021/12/25 04:20:19;;;;;;;2.17;0.68;;;;;;;;;;5014714;28;20050;-77
2021/12/25 04:23:03;;;;;;;2.50;0.60;;;;;;;;;;5014446;28;20366;-77
2021/12/25 04:25:32;;;;;;;2.60;0.57;;;;;;;;;;4997242;28;20061;-76
2021/12/25 04:28:05;;;;;;;3.45;1.10;;;;;;;;;;5014818;28;20053;-76
2021/12/25 05:05:34;;;;;;;1.75;0.52;;;;;;;;;;5013707;28;20112;-77
2021/12/25 05:08:00;;;;;;;2.90;0.82;;;;;;;;;;5013975;28;20086;-77
2021/12/25 05:10:27;;;;;;;2.15;0.63;;;;;;;;;;5013873;28;20046;-77
2021/12/25 05:12:53;;;;;;;2.55;0.70;;;;;;;;;;5013564;28;20042;-77
2021/12/25 05:15:19;;;;;;;1.73;0.60;;;;;;;;;;4996335;28;20053;-78
2021/12/25 05:17:45;;;;;;;1.58;0.50;;;;;;;;;;5013571;28;20046;-77
2021/12/25 05:20:11;;;;;;;5.30;0.80;;;;;;;;;;5013733;28;20103;-77
2021/12/25 05:22:37;;;;;;;1.73;0.60;;;;;;;;;;5013310;28;20052;-77
2021/12/25 05:25:04;;;;;;;2.55;0.68;;;;;;;;;;4996096;28;20107;-77
2021/12/25 05:27:30;;;;;;;3.95;0.90;;;;;;;;;;5013648;28;20406;-77
2021/12/25 05:29:57;;;;;;;3.45;0.80;;;;;;;;;;5012993;28;20060;-77
2021/12/25 05:32:23;;;;;;;4.05;0.68;;;;;;;;;;5013537;28;20057;-77
2021/12/25 05:34:49;;;;;;;3.65;0.80;;;;;;;;;;5013262;28;20126;-77
2021/12/25 05:37:15;;;;;;;1.95;0.70;;;;;;;;;;5013437;28;20073;-77
2021/12/25 05:39:49;;;;;;;1.67;0.63;;;;;;;;;;5013202;28;20100;-77
2021/12/25 05:42:15;;;;;;;2.20;0.63;;;;;;;;;;5013527;28;20050;-77
2021/12/25 05:44:43;;;;;;;4.78;0.90;;;;;;;;;;4995518;28;20128;-77
2021/12/25 05:47:09;;;;;;;4.13;0.88;;;;;;;;;;4996100;28;20076;-77
2021/12/25 05:49:35;;;;;;;3.67;0.60;;;;;;;;;;5012948;28;20052;-76
2021/12/25 05:52:01;;;;;;;5.30;1.08;;;;;;;;;;4995806;28;20038;-78
2021/12/25 05:54:27;;;;;;;2.25;0.65;;;;;;;;;;5013203;28;20057;-78
2021/12/25 05:56:53;;;;;;;3.72;0.75;;;;;;;;;;5012923;28;20121;-78
2021/12/25 05:59:19;;;;;;;3.35;0.70;;;-2.70;93.10;;;;;;5013152;28;20053;-78
2021/12/25 06:01:45;;;;;;;2.40;0.90;;;-2.70;93.70;;;;;;5012463;28;20049;-77
2021/12/25 06:04:10;;;;;;;3.50;0.67;;;-2.70;94.50;;;;;;5013140;28;20073;-78
2021/12/25 06:06:36;;;;;;;1.70;0.70;;;-2.70;94.30;;;;;;5012932;28;20449;-76
2021/12/25 06:09:04;;;;;;;2.97;0.80;;;-2.80;94.00;;;;;;5013113;28;20046;-78
2021/12/25 06:11:31;;;;;;;1.90;0.63;;;-2.70;94.30;;;;;;4995956;28;20054;-78
2021/12/25 06:14:08;;;;;;;1.98;0.63;;;-2.70;94.80;;;;;;5012701;28;20050;-77
2021/12/25 06:16:34;;;;;;;2.78;1.00;;;-2.70;94.30;;;;;;4995496;28;20096;-78
2021/12/25 06:19:00;;;;;;;1.67;0.80;;;-2.80;94.50;;;;;;5012685;28;20046;-78
2021/12/25 06:21:25;;;;;;;2.17;0.60;;;-2.70;94.80;;;;;;5013023;28;20293;-78
2021/12/25 06:23:51;;;;;;;2.63;0.80;;;-2.80;94.40;;;;;;5012389;28;20127;-77
2021/12/25 06:26:17;;;;;;;1.60;0.60;;;-2.80;95.00;;;;;;5012995;28;20046;-77
2021/12/25 06:28:43;;;;;;;4.07;0.97;;;-2.80;94.10;;;;;;5012572;28;20050;-77
2021/12/25 06:31:08;;;;;;;4.53;0.60;;;-2.80;94.40;;;;;;4995608;28;20049;-77
2021/12/25 06:33:34;;;;;;;2.20;0.70;;;-2.90;94.70;;;;;;5012835;28;20050;-77
2021/12/25 06:36:00;;;;;;;2.83;0.73;;;-2.90;94.80;;;;;;5012224;28;20530;-78
2021/12/25 06:38:25;;;;;;;3.93;0.70;;;-2.90;94.40;;;;;;5012901;28;20058;-77
2021/12/25 06:40:51;;;;;;;1.97;0.70;;;-2.80;93.70;;;;;;4994948;28;20453;-77
2021/12/25 06:43:17;;;;;;;2.83;1.10;;;-2.90;94.30;;;;;;5016208;28;20045;-78
2021/12/25 06:45:42;;;;;;;3.80;0.77;;;-2.80;94.30;;;;;;4998915;28;20081;-77
2021/12/25 06:48:08;;;;;;;3.53;1.20;;;-2.90;94.30;;;;;;4999088;28;20045;-78
2021/12/25 06:50:34;;;;;;;2.77;0.80;;;-2.90;94.30;;;;;;4999122;28;20045;-78
2021/12/25 06:52:59;;;;;;;2.27;0.87;;;-3.00;94.50;;;;;;5016159;28;20038;-78
2021/12/25 06:55:25;;;;;;;3.47;0.73;;;-2.90;94.00;;;;;;5016520;28;20100;-79
2021/12/25 06:57:56;;;;;;;2.67;0.77;;;-3.00;94.30;;;;;;5015932;28;20045;-78
2021/12/25 07:00:23;;;;;;;2.97;0.80;;;-3.00;94.30;;;;;;5016230;28;20053;-78
2021/12/25 07:02:49;;;;;;;1.55;0.80;;;-3.00;94.40;;;;;;5015838;28;20115;-78
2021/12/25 07:05:15;;;;;;;2.08;0.60;;;-3.10;94.30;;;;;;5016057;28;20402;-78
2021/12/25 07:07:43;;;;;;;3.63;0.90;;;-3.10;94.50;;;;;;4982380;28;20076;-78
2021/12/25 07:10:09;;;;;;;3.15;1.00;;;-3.10;94.00;;;;;;5015988;28;20050;-78
2021/12/25 07:12:37;;;;;;;4.32;0.95;;;-3.00;92.70;;;;;;5016104;28;20052;-79
2021/12/25 07:15:07;;;;;;;6.18;1.00;;;-3.00;94.10;;;;;;4998476;28;20056;-78
2021/12/25 07:17:33;;;;;;;4.93;0.85;;;-3.10;93.20;;;;;;5016019;28;20089;-78
2021/12/25 07:19:59;;;;;;;3.33;1.15;;;-3.00;93.60;;;;;;5015637;28;20048;-78
2021/12/25 07:22:25;;;;;;;2.90;0.97;;;-3.10;93.20;;;;;;4998291;28;20034;-78
2021/12/25 07:24:51;;;;;;;2.65;0.80;;;-3.00;93.50;;;;;;5015459;28;20506;-78
2021/12/25 07:27:16;;;;;;;4.30;0.90;;;-3.10;93.90;;;;;;5015881;28;20147;-78
2021/12/25 07:29:42;;;;;;;6.90;1.00;;;-3.10;93.90;;;;;;4998014;28;20042;-78
2021/12/25 07:32:08;;;;;;;1.60;0.60;;;-3.00;93.90;;;;;;4997997;28;20048;-79
2021/12/25 07:34:34;;;;;;;5.47;0.90;;;-3.10;92.70;;;;;;4998275;28;20529;-79
2021/12/25 07:37:00;;;;;;;3.33;0.70;;;-3.10;93.30;;;;;;5015135;28;20057;-79
2021/12/25 07:39:26;;;;;;;2.63;0.73;;;-3.10;93.50;;;;;;5015685;28;20133;-78
2021/12/25 07:41:52;;;;;;;3.87;0.80;;;-3.00;93.20;;;;;;5015283;28;20205;-78
2021/12/25 07:44:18;;;;;;;4.23;1.10;;;-3.00;93.00;;;;;;5015508;28;20281;-79
2021/12/25 07:46:45;;;;;;;5.03;1.40;;;-3.00;92.90;;;;;;4998009;28;20042;-79
2021/12/25 07:49:17;;;;;;;3.42;0.70;;;-2.90;93.10;;;;;;5015317;28;20057;-82
2021/12/25 07:51:43;;;;;;;2.53;0.77;;;-3.00;93.20;;;;;;5015576;28;20042;-77
2021/12/25 07:54:09;;;;;;;3.20;0.80;;;-3.00;92.80;;;;;;5014860;28;20112;-77
2021/12/25 07:56:35;;;;;;;5.60;1.10;;;-3.10;92.80;;;;;;5015217;28;20050;-77
2021/12/25 07:59:01;;;;;;;6.20;1.07;;;-3.00;92.80;;;;;;5014972;28;20123;-76
2021/12/25 08:01:28;;;;;;;3.35;0.90;;;-3.00;92.30;;;;;;4997755;28;20042;-76
2021/12/25 08:03:53;;;;;;;3.15;0.88;;;-3.00;92.80;;;;;;5014911;28;20053;-76
2021/12/25 08:06:19;;;;;;;5.03;1.23;;;-3.10;92.50;;;;;;4997603;28;20052;-76
2021/12/25 08:08:46;;;;;;;5.20;1.30;;;-3.00;93.30;;;;;;5014969;28;20042;-76
2021/12/25 08:11:13;;;;;;;2.58;0.95;;;-2.90;92.90;;;;;;5014835;28;20054;-77
2021/12/25 08:13:39;;;;;;;4.63;0.63;;;-2.90;92.50;;;;;;5016337;28;20081;-77
2021/12/25 08:16:05;;;;;;;3.80;0.80;;;-3.00;92.10;;;;;;4997107;28;20085;-77
2021/12/25 08:18:31;;;;;;;4.17;1.10;;;-3.00;92.70;;;;;;5014846;28;20054;-77
2021/12/25 08:20:57;;;;;;;1.92;0.90;;;-3.00;92.90;;;;;;5014401;28;20062;-77
2021/12/25 08:23:23;;;;;;;3.38;0.90;;;-3.00;92.80;;;;;;5014792;28;20054;-77
2021/12/25 08:25:49;;;;;;;4.90;1.33;;;-3.00;92.60;;;;;;4997433;28;20096;-77
2021/12/25 08:28:14;;;;;;;4.43;1.00;;;-3.00;93.30;;;;;;5014381;28;20552;-77
2021/12/25 08:30:40;;;;;;;3.93;1.00;;;-3.00;92.90;;;;;;5014695;28;20153;-77
2021/12/25 08:33:06;;;;;;;3.30;1.00;;;-3.00;93.00;;;;;;5014300;28;20470;-77
2021/12/25 08:35:33;;;;;;;3.63;1.03;;;-3.00;93.00;;;;;;5014475;28;20143;-77
2021/12/25 08:37:59;;;;;;;4.18;1.13;;;-2.90;93.20;;;;;;4996450;28;20494;-76
2021/12/25 08:40:25;;;;;;;2.95;0.90;;;-2.90;93.20;;;;;;5014432;28;20045;-77
2021/12/25 08:42:59;;;;;;;3.17;0.80;;;-2.90;92.80;;;;;;5014338;28;20453;-77
2021/12/25 08:48:27;;;;;;;2.88;1.00;;;-2.90;92.10;;;;;;5014124;28;20123;-77
2021/12/25 08:50:56;;;;;;;4.38;1.33;;;-2.90;92.90;;;;;;4996608;28;20054;-78
2021/12/25 08:53:23;;;;;;;4.45;1.13;;;-2.80;93.10;;;;;;5014216;28;20052;-77
2021/12/25 08:55:50;;;;;;;5.93;1.40;;;-2.80;92.90;;;;;;5013830;28;20455;-77
2021/12/25 08:58:17;;;;;;;3.42;1.00;;;-2.80;92.70;;;;;;5013946;28;20994;-78
2021/12/25 09:00:43;;;;;;;2.28;0.80;;;-2.80;92.80;;;;;;5014329;28;20046;-78
2021/12/25 09:03:09;;;;;;;3.35;1.45;;;-2.80;93.20;;;;;;5013701;28;20132;-78
2021/12/25 09:05:36;;;;;;;6.03;1.30;;;-2.70;93.20;;;;;;5013535;28;20132;-77
2021/12/25 09:08:02;;;;;;;3.55;1.23;;;-2.80;93.20;;;;;;4996132;28;20041;-79
2021/12/25 09:10:29;;;;;;;3.83;1.00;;;-2.70;93.30;;;;;;5013903;28;20050;-78
2021/12/25 09:12:56;;;;;;;8.82;1.15;;;-2.70;93.30;;;;;;5013839;28;20045;-77
2021/12/25 09:15:23;;;;;;;4.38;1.00;;;-2.70;93.50;;;;;;5019625;28;20499;-76
2021/12/25 09:17:48;;;;;;;6.50;1.08;;;-2.70;93.30;;;;;;5026109;28;20041;-77
2021/12/25 09:20:19;;;;;;;3.43;0.77;;;-2.70;92.80;;;;;;5021981;28;20050;-77
2021/12/25 09:22:45;;;;;;;5.25;1.00;;;-2.60;93.00;;;;;;5005390;28;20303;-77
2021/12/25 09:25:11;;;;;;;3.88;1.00;;;-2.60;93.10;;;;;;5018515;28;20049;-77
2021/12/25 09:27:37;;;;;;;3.15;1.10;;;-2.60;92.80;;;;;;4996246;28;20058;-77
2021/12/25 09:30:04;;;;;;;3.33;0.97;;;-2.50;93.20;;;;;;4995901;28;20064;-77
2021/12/25 09:32:30;;;;;;;3.83;0.75;;;-2.50;93.00;;;;;;5013479;28;20517;-77
2021/12/25 09:35:00;;;;;;;3.17;0.98;;;-2.40;91.80;;;;;;5015318;28;20128;-76
2021/12/25 09:37:29;;;;;;;3.50;1.60;;;-2.40;92.20;;;;;;5013331;28;20057;-75
2021/12/25 09:39:56;;;;;;;3.10;1.00;;;-2.40;92.30;;;;;;5013510;28;20136;-77
2021/12/25 09:42:24;;;;;;;3.42;1.10;;;-2.40;92.50;;;;;;5013209;28;20160;-76
2021/12/25 09:44:51;;;;;;;4.50;1.10;;;-2.30;92.40;;;;;;5013144;28;20559;-79
2021/12/25 09:47:17;;;;;;;3.65;1.40;;;-2.30;92.10;;;;;;4995740;28;20135;-76
2021/12/25 09:49:43;;;;;;;3.37;1.00;;;-2.30;92.30;;;;;;4996279;28;20093;-79
2021/12/25 09:52:09;;;;;;;5.23;1.43;;;-2.30;92.60;;;;;;5013194;28;20593;-76
2021/12/25 09:54:34;;;;;;;5.93;0.90;;;-2.30;92.90;;;;;;5013289;28;20068;-77
2021/12/25 09:57:00;;;;;;;2.03;0.70;;;-2.30;92.00;;;;;;5013400;28;20121;-77
2021/12/25 09:59:26;;;;;;;3.97;0.90;;;-2.30;91.90;;;;;;5013115;28;20053;-78
2021/12/25 10:01:55;;;;;;;5.93;1.30;;;-2.30;92.20;;;;;;5013082;28;20336;-77
2021/12/25 10:04:32;;;;;;;4.00;1.30;;;-2.20;92.40;;;;;;4995464;28;20053;-78
2021/12/25 10:07:15;;;;;;;8.82;1.45;;;-2.20;92.60;;;;;;5013175;28;20081;-78
2021/12/25 10:09:41;;;;;;;5.07;1.10;;;-2.20;92.00;;;;;;5013468;28;20132;-77
2021/12/25 10:12:10;;;;;;;5.70;1.07;;;-2.00;91.60;;;;;;5012867;28;20148;-80
2021/12/25 10:14:37;;;;;;;5.50;1.60;;;-2.10;91.20;;;;;;5000733;28;20041;-75
2021/12/25 10:17:18;;;;;;;6.18;1.30;;;-2.10;91.40;;;;;;5023987;28;20135;-73
2021/12/25 10:20:08;;;;;;;4.32;1.13;;;-2.10;92.10;;;;;;5027259;28;20049;-76
2021/12/25 10:22:55;;;;;;;4.03;1.17;;;-2.10;91.50;;;;;;5026598;28;20050;-76
2021/12/25 10:25:22;;;;;;;2.38;0.95;;;-2.00;91.50;;;;;;5020110;28;20514;-76
2021/12/25 10:27:55;;;;;;;5.13;1.10;;;-1.90;91.10;;;;;;5009533;28;20048;-76
2021/12/25 10:30:21;;;;;;;3.35;1.08;;;-1.80;91.10;;;;;;5027311;28;20052;-74
2021/12/25 10:32:48;;;;;;;5.25;1.02;;;-1.90;90.50;;;;;;5025144;28;20498;-74
2021/12/25 10:35:23;;;;;;;1.83;0.85;;;-1.90;91.40;;;;;;5025562;28;20513;-75
2021/12/25 10:37:52;;;;;;;5.30;0.90;;;-1.80;91.60;;;;;;5007864;28;20065;-76
2021/12/25 10:40:31;;;;;;;5.15;1.58;;;-1.70;91.10;;;;;;5024497;28;20375;-76
2021/12/25 10:43:01;;;;;;;7.53;2.30;;;-1.70;90.50;;;;;;5025073;28;20664;-76
2021/12/25 10:45:28;;;;;;;5.68;1.58;;;-1.80;90.00;;;;;;5026167;28;20041;-76
2021/12/25 10:48:05;;;;;;;4.18;1.17;;;-1.80;90.60;;;;;;5009178;28;20037;-79
2021/12/25 10:50:41;;;;;;;3.50;1.08;;;-1.70;91.10;;;;;;5025692;28;20510;-75
2021/12/25 10:53:25;;;;;;;3.53;1.10;;;-1.70;88.90;;;;;;5028377;28;20505;-76
2021/12/25 10:55:53;;;;;;;2.95;0.88;;;-1.70;89.90;;;;;;5036244;28;20491;-78
2021/12/25 10:58:24;;;;;;;2.50;0.80;;;-1.70;88.40;;;;;;5024323;28;20485;-81
2021/12/25 11:00:54;;;;;;;8.27;2.28;;;-1.70;90.30;;;;;;5032688;28;20045;-78
2021/12/25 11:03:30;;;;;;;5.28;1.80;;;-1.60;90.30;;;;;;5031367;28;20120;-76
2021/12/25 11:06:03;;;;;;;6.28;1.60;;;-1.60;90.00;;;;;;5033220;28;20050;-75
2021/12/25 11:08:29;;;;;;;5.50;1.55;;;-1.60;90.70;;;;;;5034209;28;20049;-77
2021/12/25 11:11:02;;;;;;;5.22;1.50;;;-1.60;88.50;;;;;;5035848;28;20053;-77
2021/12/25 11:13:34;;;;;;;4.10;1.35;;;-1.60;87.30;;;;;;5035215;28;20393;-75
2021/12/25 11:16:27;;;;;;;10.70;4.18;;;-1.50;90.30;;;;;;5035717;28;20056;-75
2021/12/25 11:19:58;;;;;;;4.70;1.30;;;-1.50;89.00;;;;;;5036013;28;20045;-73
2021/12/25 11:21:56;;;;;;;3.17;1.40;;;-1.40;89.00;;;;;;5026093;28;20050;-85
2021/12/25 11:24:30;;;;;;;3.28;1.40;;;-1.40;89.30;;;;;;5035375;28;20045;-74
2021/12/25 11:26:58;;;;;;;4.70;1.50;;;;;;;;;;5035217;28;20049;-74
2021/12/25 11:29:25;;;;;;;7.28;1.88;;;;;;;;;;5035070;28;20049;-74
2021/12/25 11:31:52;;;;;;;3.97;1.05;;;;;;;;;;5035479;28;20057;-75
2021/12/25 11:34:19;;;;;;;4.35;1.70;;;;;;;;;;5017448;28;20103;-75
2021/12/25 11:36:48;;;;;;;3.47;0.80;;;;;;;;;;5035179;28;20045;-75
2021/12/25 11:39:15;;;;;;;4.28;1.23;;;;;;;;;;5035439;28;20266;-75
2021/12/25 11:41:42;;;;;;;5.97;1.30;;;;;;;;;;5017582;28;20081;-74
2021/12/25 11:44:27;;;;;;;6.28;1.52;;;;;;;;;;5035218;28;20110;-78
2021/12/25 11:46:53;;;;;;;5.80;1.42;;;;;;;;;;5035379;28;20101;-74
2021/12/25 11:49:19;;;;;;;4.28;1.88;;;;;;;;;;5034885;28;20041;-76
2021/12/25 11:51:46;;;;;;;4.95;1.50;;;;;;;;;;5035078;28;20493;-77
2021/12/25 11:54:43;;;;;;;3.17;0.90;;;;;;;;;;5035260;28;20111;-76
2021/12/25 11:59:44;;;;;;;3.25;0.90;;;-0.80;95.10;;;;;;5034333;28;20541;-78
2021/12/25 12:02:11;;;;;;;5.18;1.55;;;-0.90;95.90;;;;;;5034765;28;20045;-76
2021/12/25 12:04:37;;;;;;;8.80;1.58;;;-1.10;87.70;;;;;;5017157;28;20558;-78
2021/12/25 12:07:14;;;;;;;3.97;1.23;;;-1.10;87.00;;;;;;5034969;28;20092;-78
2021/12/25 12:09:46;;;;;;;4.63;0.90;;;-1.00;86.20;;;;;;5034522;28;20050;-80
2021/12/25 12:12:26;;;;;;;3.55;1.10;;;-1.00;84.60;;;;;;5034719;28;20048;-78
2021/12/25 12:15:12;;;;;;;8.10;1.42;;;-1.00;83.70;;;;;;5034760;28;20049;-77
2021/12/25 12:17:39;;;;;;;2.47;0.93;;;-1.10;85.30;;;;;;5034469;28;20124;-85
2021/12/25 12:20:06;;;;;;;3.72;0.85;;;-1.00;84.10;;;;;;5034757;28;20386;-85
2021/12/25 12:23:29;;;;;;;6.20;2.10;;;-1.00;84.60;;;;;;5034102;28;20050;-77
2021/12/25 12:25:47;;;;;;;3.15;0.93;;;-1.00;85.20;;;;;;5011087;28;20060;-75
2021/12/25 12:28:13;;;;;;;5.68;0.93;;;-0.90;83.50;;;;;;5034669;28;20095;-77
2021/12/25 12:30:45;;;;;;;3.63;0.80;;;-0.90;82.80;;;;;;5034129;28;20049;-76
2021/12/25 12:33:19;;;;;;;6.63;1.38;;;-1.00;84.10;;;;;;5034499;28;20478;-76
2021/12/25 12:35:53;;;;;;;6.43;1.13;;;-1.00;85.60;;;;;;5033874;28;20132;-76
2021/12/25 12:38:37;;;;;;;5.25;1.45;;;-0.80;85.00;;;;;;5028175;28;20140;-77
2021/12/25 12:41:16;;;;;;;3.72;1.05;;;-1.00;83.80;;;;;;5024202;28;20445;-76
2021/12/25 12:44:15;;;;;;;10.13;2.63;;;-0.90;85.30;;;;;;5023106;28;20237;-76
2021/12/25 12:46:50;;;;;;;4.80;1.20;;;-0.90;82.90;;;;;;5018294;28;20046;-76
2021/12/25 12:49:19;;;;;;;4.78;1.75;;;-0.90;82.40;;;;;;5022266;28;20080;-78
2021/12/25 12:51:46;;;;;;;10.73;3.25;;;-0.90;81.70;;;;;;5024332;28;20125;-76
2021/12/25 12:54:42;;;;;;;4.72;1.60;;;-1.00;82.60;;;;;;5008656;28;20045;-77
2021/12/25 12:57:08;;;;;;;8.13;2.90;;;-1.00;84.90;;;;;;5033924;28;20088;-80
2021/12/25 13:00:06;;;;;;;2.85;0.98;;;-1.00;84.80;;;;;;5033572;28;20135;-75
2021/12/25 13:02:57;;;;;;;9.77;3.28;;;-0.90;82.50;;;;;;5025679;28;20417;-78
2021/12/25 13:05:29;;;;;;;3.80;1.00;;;-0.90;82.40;;;;;;5016218;28;20041;-76
2021/12/25 13:07:56;;;;;;;5.40;1.30;;;-0.90;83.70;;;;;;5033721;28;20050;-78
2021/12/25 13:10:33;;;;;;;6.38;1.50;;;-1.00;84.40;;;;;;5033678;28;20049;-77
2021/12/25 13:13:28;;;;;;;10.32;2.10;;;-0.80;82.80;;;;;;5033864;28;20049;-77
2021/12/25 13:16:00;;;;;;;9.10;2.33;;;-0.90;82.80;;;;;;5032153;28;20144;-77
2021/12/25 13:18:33;;;;;;;4.32;0.98;;;-0.90;83.60;;;;;;5033505;28;20049;-75
2021/12/25 13:21:00;;;;;;;3.42;1.13;;;-0.80;82.30;;;;;;5033593;28;20107;-77
2021/12/25 13:23:32;;;;;;;5.90;1.10;;;-0.70;81.30;;;;;;5033399;28;20041;-77
2021/12/25 13:26:05;;;;;;;3.40;1.00;;;-0.70;82.00;;;;;;5033720;28;20042;-76
2021/12/25 13:28:34;;;;;;;3.33;1.10;;;-0.70;81.30;;;;;;5033390;28;20045;-78
2021/12/25 13:31:12;;;;;;;6.07;1.40;;;-0.80;82.50;;;;;;5032917;28;20143;-79
2021/12/25 13:34:13;;;;;;;7.38;1.77;;;-0.80;82.00;;;;;;5033253;28;20048;-78
2021/12/25 13:36:42;;;;;;;8.45;1.90;;;-0.80;81.90;;;;;;5025266;28;20500;-76
2021/12/25 13:39:15;;;;;;;8.05;1.48;;;-0.80;81.60;;;;;;5033191;28;20064;-77
2021/12/25 13:41:46;;;;;;;6.35;1.58;;;-0.80;80.40;;;;;;5032859;28;20081;-83
2021/12/25 13:44:33;;;;;;;11.45;2.22;;;-0.70;79.00;;;;;;5033290;28;20411;-76
2021/12/25 13:47:03;;;;;;;5.70;1.77;;;-0.70;78.90;;;;;;5032701;28;20489;-76
2021/12/25 13:49:42;;;;;;;3.83;1.17;;;-0.70;78.70;;;;;;5032817;28;20045;-74
2021/12/25 13:52:33;;;;;;;8.10;2.40;;;-0.80;79.20;;;;;;4999187;28;20041;-74
2021/12/25 13:55:12;;;;;;;5.68;1.75;;;-0.80;79.90;;;;;;5032994;28;20405;-75
2021/12/25 13:58:03;;;;;;;3.17;1.00;;;-0.90;81.40;;;;;;5032748;28;20088;-77
2021/12/25 14:00:35;;;;;;;1.88;0.70;;;-0.90;81.60;;;;;;5028027;28;20057;-77
2021/12/25 14:03:04;;;;;;;4.57;1.27;;;-0.80;80.30;;;;;;5032745;28;20052;-75
2021/12/25 14:05:35;;;;;;;5.95;1.65;;;-0.70;80.40;;;;;;5015243;28;20098;-76
2021/12/25 14:08:01;;;;;;;5.60;1.70;;;-0.80;79.90;;;;;;5033079;28;20041;-77
2021/12/25 14:10:29;;;;;;;6.63;2.17;;;-0.80;79.60;;;;;;5032774;28;20041;-78
2021/12/25 14:12:58;;;;;;;4.20;1.30;;;-0.90;80.00;;;;;;5014786;28;20338;-76
2021/12/25 14:15:26;;;;;;;5.60;1.13;;;-0.90;80.00;;;;;;5032775;28;20132;-76
2021/12/25 14:17:52;;;;;;;6.70;1.55;;;-0.80;79.60;;;;;;5023710;28;20049;-82
2021/12/25 14:20:23;;;;;;;5.18;1.50;;;-0.80;79.00;;;;;;5022187;28;20532;-77
2021/12/25 14:22:58;;;;;;;3.92;1.00;;;-0.80;79.80;;;;;;5023067;28;20506;-75
2021/12/25 14:25:27;;;;;;;5.37;1.40;;;-0.90;79.40;;;;;;5005955;28;20037;-75
2021/12/25 14:28:07;;;;;;;3.60;1.40;;;-0.90;78.50;;;;;;5021290;28;20312;-75
2021/12/25 14:30:37;;;;;;;7.47;1.48;;;-0.90;80.30;;;;;;5021611;28;20427;-75
2021/12/25 14:33:03;;;;;;;5.20;1.30;;;-0.90;80.70;;;;;;5021747;28;20046;-75
2021/12/25 14:35:29;;;;;;;5.30;1.73;;;-0.90;80.60;;;;;;5023224;28;20034;-75
2021/12/25 14:37:57;;;;;;;6.63;1.80;;;-0.90;80.80;;;;;;4983749;28;20054;-76